sensor_id;sensor_type;location;lat;lon;timestamp;temperature;humidity
35804;DHT22;21924;51.934;7.414;2024-02-23T00:00:21;5.50;99.90
35804;DHT22;21924;51.934;7.414;2024-02-23T00:03:06;5.40;99.90
35804;DHT22;21924;51.934;7.414;2024-02-23T00:05:52;5.30;99.90
35804;DHT22;21924;51.934;7.414;2024-02-23T00:08:36;5.30;99.90
35804;DHT22;21924;51.934;7.414;2024-02-23T00:11:21;5.30;99.90
35804;DHT22;21924;51.934;7.414;2024-02-23T00:14:05;5.20;99.90
35804;DHT22;21924;51.934;7.414;2024-02-23T00:16:50;5.20;99.90
35804;DHT22;21924;51.934;7.414;2024-02-23T00:19:34;5.20;99.90
35804;DHT22;21924;51.934;7.414;2024-02-23T00:22:18;5.20;99.90
35804;DHT22;21924;51.934;7.414;2024-02-23T00:25:03;5.20;99.90
35804;DHT22;21924;51.934;7.414;2024-02-23T00:27:47;5.20;99.90
35804;DHT22;21924;51.934;7.414;2024-02-23T00:30:31;5.10;99.90
35804;DHT22;21924;51.934;7.414;2024-02-23T00:33:15;5.00;99.90
35804;DHT22;21924;51.934;7.414;2024-02-23T00:35:59;4.90;99.90
35804;DHT22;21924;51.934;7.414;2024-02-23T00:38:44;4.80;99.90
35804;DHT22;21924;51.934;7.414;2024-02-23T00:41:28;4.80;99.90
35804;DHT22;21924;51.934;7.414;2024-02-23T00:44:12;4.80;99.90
35804;DHT22;21924;51.934;7.414;2024-02-23T00:46:56;4.70;99.90
35804;DHT22;21924;51.934;7.414;2024-02-23T00:49:45;4.80;99.90
35804;DHT22;21924;51.934;7.414;2024-02-23T00:52:29;4.70;99.90
35804;DHT22;21924;51.934;7.414;2024-02-23T00:55:13;4.70;99.90
35804;DHT22;21924;51.934;7.414;2024-02-23T00:57:57;4.70;99.90
35804;DHT22;21924;51.934;7.414;2024-02-23T01:00:41;4.60;99.90
35804;DHT22;21924;51.934;7.414;2024-02-23T01:03:26;4.60;99.90
35804;DHT22;21924;51.934;7.414;2024-02-23T01:06:10;4.60;99.90
35804;DHT22;21924;51.934;7.414;2024-02-23T01:08:54;4.60;99.90
35804;DHT22;21924;51.934;7.414;2024-02-23T01:11:38;4.60;99.90
35804;DHT22;21924;51.934;7.414;2024-02-23T01:14:22;4.60;99.90
35804;DHT22;21924;51.934;7.414;2024-02-23T01:17:07;4.60;99.90
35804;DHT22;21924;51.934;7.414;2024-02-23T01:19:51;4.60;99.90
35804;DHT22;21924;51.934;7.414;2024-02-23T01:22:36;4.70;99.90
35804;DHT22;21924;51.934;7.414;2024-02-23T01:25:21;4.70;99.90
35804;DHT22;21924;51.934;7.414;2024-02-23T01:28:05;4.70;99.90
35804;DHT22;21924;51.934;7.414;2024-02-23T01:30:49;4.70;99.90
35804;DHT22;21924;51.934;7.414;2024-02-23T01:33:33;4.70;99.90
35804;DHT22;21924;51.934;7.414;2024-02-23T01:36:20;4.70;99.90
35804;DHT22;21924;51.934;7.414;2024-02-23T01:39:04;4.70;99.90
35804;DHT22;21924;51.934;7.414;2024-02-23T01:41:49;4.70;99.90
35804;DHT22;21924;51.934;7.414;2024-02-23T01:44:33;4.70;99.90
35804;DHT22;21924;51.934;7.414;2024-02-23T01:47:17;4.70;99.90
35804;DHT22;21924;51.934;7.414;2024-02-23T01:50:02;4.80;99.90
35804;DHT22;21924;51.934;7.414;2024-02-23T01:52:47;4.80;99.90
35804;DHT22;21924;51.934;7.414;2024-02-23T01:55:32;4.80;99.90
35804;DHT22;21924;51.934;7.414;2024-02-23T01:58:17;4.90;99.90
35804;DHT22;21924;51.934;7.414;2024-02-23T02:01:02;4.80;99.90
35804;DHT22;21924;51.934;7.414;2024-02-23T02:03:46;4.90;99.90
35804;DHT22;21924;51.934;7.414;2024-02-23T02:06:30;4.90;99.90
35804;DHT22;21924;51.934;7.414;2024-02-23T02:09:15;5.00;99.90
35804;DHT22;21924;51.934;7.414;2024-02-23T02:11:59;4.90;99.90
35804;DHT22;21924;51.934;7.414;2024-02-23T02:14:43;5.00;99.90
35804;DHT22;21924;51.934;7.414;2024-02-23T02:17:28;5.00;99.90
35804;DHT22;21924;51.934;7.414;2024-02-23T02:20:13;5.00;99.90
35804;DHT22;21924;51.934;7.414;2024-02-23T02:22:57;5.00;99.90
35804;DHT22;21924;51.934;7.414;2024-02-23T02:25:41;5.10;99.90
35804;DHT22;21924;51.934;7.414;2024-02-23T02:28:26;5.10;99.90
35804;DHT22;21924;51.934;7.414;2024-02-23T02:31:10;5.10;99.90
35804;DHT22;21924;51.934;7.414;2024-02-23T02:33:54;5.10;99.90
35804;DHT22;21924;51.934;7.414;2024-02-23T02:43:39;5.30;99.90
35804;DHT22;21924;51.934;7.414;2024-02-23T02:46:23;5.30;99.90
35804;DHT22;21924;51.934;7.414;2024-02-23T02:49:07;5.30;99.90
35804;DHT22;21924;51.934;7.414;2024-02-23T02:51:51;5.40;99.90
35804;DHT22;21924;51.934;7.414;2024-02-23T02:54:35;5.40;99.90
35804;DHT22;21924;51.934;7.414;2024-02-23T02:57:19;5.40;99.90
35804;DHT22;21924;51.934;7.414;2024-02-23T03:00:04;5.40;99.90
35804;DHT22;21924;51.934;7.414;2024-02-23T03:02:53;5.40;99.90
35804;DHT22;21924;51.934;7.414;2024-02-23T03:05:37;5.30;99.90
35804;DHT22;21924;51.934;7.414;2024-02-23T03:08:21;5.30;99.90
35804;DHT22;21924;51.934;7.414;2024-02-23T03:11:05;5.40;99.90
35804;DHT22;21924;51.934;7.414;2024-02-23T03:13:50;5.40;99.90
35804;DHT22;21924;51.934;7.414;2024-02-23T03:16:34;5.40;99.90
35804;DHT22;21924;51.934;7.414;2024-02-23T03:19:20;5.30;99.90
35804;DHT22;21924;51.934;7.414;2024-02-23T03:22:06;5.30;99.90
35804;DHT22;21924;51.934;7.414;2024-02-23T03:24:50;5.30;99.90
35804;DHT22;21924;51.934;7.414;2024-02-23T03:27:36;5.30;99.90
35804;DHT22;21924;51.934;7.414;2024-02-23T03:30:20;5.30;99.90
35804;DHT22;21924;51.934;7.414;2024-02-23T03:33:05;5.20;99.90
35804;DHT22;21924;51.934;7.414;2024-02-23T03:35:49;5.20;99.90
35804;DHT22;21924;51.934;7.414;2024-02-23T03:38:33;5.20;99.90
35804;DHT22;21924;51.934;7.414;2024-02-23T03:41:18;5.30;99.90
35804;DHT22;21924;51.934;7.414;2024-02-23T03:44:02;5.30;99.90
35804;DHT22;21924;51.934;7.414;2024-02-23T03:46:46;5.40;99.90
35804;DHT22;21924;51.934;7.414;2024-02-23T03:49:30;5.40;99.90
35804;DHT22;21924;51.934;7.414;2024-02-23T03:52:14;5.30;99.90
35804;DHT22;21924;51.934;7.414;2024-02-23T03:54:58;5.30;99.90
35804;DHT22;21924;51.934;7.414;2024-02-23T03:57:42;5.30;99.90
35804;DHT22;21924;51.934;7.414;2024-02-23T04:00:26;5.20;99.90
35804;DHT22;21924;51.934;7.414;2024-02-23T04:03:10;5.30;99.90
35804;DHT22;21924;51.934;7.414;2024-02-23T04:05:55;5.30;99.90
35804;DHT22;21924;51.934;7.414;2024-02-23T04:08:40;5.30;99.90
35804;DHT22;21924;51.934;7.414;2024-02-23T04:11:24;5.30;99.90
35804;DHT22;21924;51.934;7.414;2024-02-23T04:14:09;5.30;99.90
35804;DHT22;21924;51.934;7.414;2024-02-23T04:16:53;5.30;99.90
35804;DHT22;21924;51.934;7.414;2024-02-23T04:19:38;5.20;99.90
35804;DHT22;21924;51.934;7.414;2024-02-23T04:22:22;5.20;99.90
35804;DHT22;21924;51.934;7.414;2024-02-23T04:25:07;5.30;99.90
35804;DHT22;21924;51.934;7.414;2024-02-23T04:27:51;5.30;99.90
35804;DHT22;21924;51.934;7.414;2024-02-23T04:30:35;5.30;99.90
35804;DHT22;21924;51.934;7.414;2024-02-23T04:33:20;5.20;99.90
35804;DHT22;21924;51.934;7.414;2024-02-23T04:36:07;5.30;99.90
35804;DHT22;21924;51.934;7.414;2024-02-23T04:46:14;5.30;99.90
35804;DHT22;21924;51.934;7.414;2024-02-23T04:48:58;5.30;99.90
35804;DHT22;21924;51.934;7.414;2024-02-23T04:51:42;5.30;99.90
35804;DHT22;21924;51.934;7.414;2024-02-23T04:54:27;5.30;99.90
35804;DHT22;21924;51.934;7.414;2024-02-23T04:57:11;5.30;99.90
35804;DHT22;21924;51.934;7.414;2024-02-23T04:59:56;5.40;99.90
35804;DHT22;21924;51.934;7.414;2024-02-23T05:02:41;5.40;99.90
35804;DHT22;21924;51.934;7.414;2024-02-23T05:05:25;5.40;99.90
35804;DHT22;21924;51.934;7.414;2024-02-23T05:08:09;5.30;99.90
35804;DHT22;21924;51.934;7.414;2024-02-23T05:10:53;5.30;99.90
35804;DHT22;21924;51.934;7.414;2024-02-23T05:13:37;5.40;99.90
35804;DHT22;21924;51.934;7.414;2024-02-23T05:16:23;5.40;99.90
35804;DHT22;21924;51.934;7.414;2024-02-23T05:19:07;5.40;99.90
35804;DHT22;21924;51.934;7.414;2024-02-23T05:21:51;5.40;99.90
35804;DHT22;21924;51.934;7.414;2024-02-23T05:24:35;5.40;99.90
35804;DHT22;21924;51.934;7.414;2024-02-23T05:27:20;5.40;99.90
35804;DHT22;21924;51.934;7.414;2024-02-23T05:30:04;5.40;99.90
35804;DHT22;21924;51.934;7.414;2024-02-23T05:32:50;5.40;99.90
35804;DHT22;21924;51.934;7.414;2024-02-23T05:35:34;5.40;99.90
35804;DHT22;21924;51.934;7.414;2024-02-23T05:38:18;5.40;99.90
35804;DHT22;21924;51.934;7.414;2024-02-23T05:41:03;5.50;99.90
35804;DHT22;21924;51.934;7.414;2024-02-23T05:43:49;5.40;99.90
35804;DHT22;21924;51.934;7.414;2024-02-23T05:46:34;5.40;99.90
35804;DHT22;21924;51.934;7.414;2024-02-23T05:49:18;5.40;99.90
35804;DHT22;21924;51.934;7.414;2024-02-23T05:52:03;5.30;99.90
35804;DHT22;21924;51.934;7.414;2024-02-23T05:54:47;5.30;99.90
35804;DHT22;21924;51.934;7.414;2024-02-23T05:57:31;5.30;99.90
35804;DHT22;21924;51.934;7.414;2024-02-23T06:00:16;5.30;99.90
35804;DHT22;21924;51.934;7.414;2024-02-23T06:03:03;5.30;99.90
35804;DHT22;21924;51.934;7.414;2024-02-23T06:05:47;5.40;99.90
35804;DHT22;21924;51.934;7.414;2024-02-23T06:08:31;5.40;99.90
35804;DHT22;21924;51.934;7.414;2024-02-23T06:11:15;5.40;99.90
35804;DHT22;21924;51.934;7.414;2024-02-23T06:14:00;5.40;99.90
35804;DHT22;21924;51.934;7.414;2024-02-23T06:16:44;5.40;99.90
35804;DHT22;21924;51.934;7.414;2024-02-23T06:19:28;5.40;99.90
35804;DHT22;21924;51.934;7.414;2024-02-23T06:22:12;5.40;99.90
35804;DHT22;21924;51.934;7.414;2024-02-23T06:24:58;5.40;99.90
35804;DHT22;21924;51.934;7.414;2024-02-23T06:27:42;5.40;99.90
35804;DHT22;21924;51.934;7.414;2024-02-23T06:30:27;5.30;99.90
35804;DHT22;21924;51.934;7.414;2024-02-23T06:33:11;5.30;99.90
35804;DHT22;21924;51.934;7.414;2024-02-23T06:35:55;5.20;99.90
35804;DHT22;21924;51.934;7.414;2024-02-23T06:38:40;5.10;99.90
35804;DHT22;21924;51.934;7.414;2024-02-23T06:41:24;5.10;99.90
35804;DHT22;21924;51.934;7.414;2024-02-23T06:44:08;5.00;99.90
35804;DHT22;21924;51.934;7.414;2024-02-23T06:46:52;5.00;99.90
35804;DHT22;21924;51.934;7.414;2024-02-23T06:49:36;5.10;99.90
35804;DHT22;21924;51.934;7.414;2024-02-23T06:52:23;5.10;99.90
35804;DHT22;21924;51.934;7.414;2024-02-23T06:55:10;5.20;99.90
35804;DHT22;21924;51.934;7.414;2024-02-23T06:57:54;5.20;99.90
35804;DHT22;21924;51.934;7.414;2024-02-23T07:00:39;5.10;99.90
35804;DHT22;21924;51.934;7.414;2024-02-23T07:03:23;5.10;99.90
35804;DHT22;21924;51.934;7.414;2024-02-23T07:06:07;5.10;99.90
35804;DHT22;21924;51.934;7.414;2024-02-23T07:08:54;5.00;99.90
35804;DHT22;21924;51.934;7.414;2024-02-23T07:11:39;5.00;99.90
35804;DHT22;21924;51.934;7.414;2024-02-23T07:14:25;5.10;99.90
35804;DHT22;21924;51.934;7.414;2024-02-23T07:17:09;5.10;99.90
35804;DHT22;21924;51.934;7.414;2024-02-23T07:19:54;5.20;99.90
35804;DHT22;21924;51.934;7.414;2024-02-23T07:22:43;5.00;99.90
35804;DHT22;21924;51.934;7.414;2024-02-23T07:25:28;5.00;99.90
35804;DHT22;21924;51.934;7.414;2024-02-23T07:28:16;5.00;99.90
35804;DHT22;21924;51.934;7.414;2024-02-23T07:31:03;5.00;99.90
35804;DHT22;21924;51.934;7.414;2024-02-23T07:33:48;5.00;99.90
35804;DHT22;21924;51.934;7.414;2024-02-23T07:36:33;5.10;99.90
35804;DHT22;21924;51.934;7.414;2024-02-23T07:39:18;5.10;99.90
35804;DHT22;21924;51.934;7.414;2024-02-23T07:42:03;5.00;99.90
35804;DHT22;21924;51.934;7.414;2024-02-23T07:44:47;5.20;99.90
35804;DHT22;21924;51.934;7.414;2024-02-23T07:47:31;5.20;99.90
35804;DHT22;21924;51.934;7.414;2024-02-23T07:50:16;5.30;99.90
35804;DHT22;21924;51.934;7.414;2024-02-23T07:53:02;5.40;99.90
35804;DHT22;21924;51.934;7.414;2024-02-23T07:55:48;5.50;99.90
35804;DHT22;21924;51.934;7.414;2024-02-23T07:58:33;5.60;99.90
35804;DHT22;21924;51.934;7.414;2024-02-23T08:01:17;5.70;99.90
35804;DHT22;21924;51.934;7.414;2024-02-23T08:04:01;5.70;99.90
35804;DHT22;21924;51.934;7.414;2024-02-23T08:06:50;5.80;99.90
35804;DHT22;21924;51.934;7.414;2024-02-23T08:09:34;6.00;99.90
35804;DHT22;21924;51.934;7.414;2024-02-23T08:12:20;6.20;99.90
35804;DHT22;21924;51.934;7.414;2024-02-23T08:15:11;6.20;99.90
35804;DHT22;21924;51.934;7.414;2024-02-23T08:17:57;6.30;99.90
35804;DHT22;21924;51.934;7.414;2024-02-23T08:20:42;6.50;99.90
35804;DHT22;21924;51.934;7.414;2024-02-23T08:23:29;6.50;99.90
35804;DHT22;21924;51.934;7.414;2024-02-23T08:26:18;6.50;99.90
35804;DHT22;21924;51.934;7.414;2024-02-23T08:29:14;6.60;99.90
35804;DHT22;21924;51.934;7.414;2024-02-23T08:32:00;6.60;99.90
35804;DHT22;21924;51.934;7.414;2024-02-23T08:34:45;6.60;99.90
35804;DHT22;21924;51.934;7.414;2024-02-23T08:37:29;6.70;99.90
35804;DHT22;21924;51.934;7.414;2024-02-23T08:40:13;6.70;99.90
35804;DHT22;21924;51.934;7.414;2024-02-23T08:42:57;6.70;99.90
35804;DHT22;21924;51.934;7.414;2024-02-23T08:45:41;6.70;99.90
35804;DHT22;21924;51.934;7.414;2024-02-23T08:48:27;6.70;99.90
35804;DHT22;21924;51.934;7.414;2024-02-23T08:51:13;6.70;99.90
35804;DHT22;21924;51.934;7.414;2024-02-23T08:53:57;6.70;99.90
35804;DHT22;21924;51.934;7.414;2024-02-23T08:56:47;6.80;99.90
35804;DHT22;21924;51.934;7.414;2024-02-23T08:59:31;6.80;99.90
35804;DHT22;21924;51.934;7.414;2024-02-23T09:02:16;6.80;99.90
35804;DHT22;21924;51.934;7.414;2024-02-23T09:05:00;6.80;99.90
35804;DHT22;21924;51.934;7.414;2024-02-23T09:07:44;6.90;99.90
35804;DHT22;21924;51.934;7.414;2024-02-23T09:10:29;7.00;99.90
35804;DHT22;21924;51.934;7.414;2024-02-23T09:13:13;7.10;99.90
35804;DHT22;21924;51.934;7.414;2024-02-23T09:15:57;7.00;99.90
35804;DHT22;21924;51.934;7.414;2024-02-23T09:18:42;7.00;99.90
35804;DHT22;21924;51.934;7.414;2024-02-23T09:21:26;7.10;99.90
35804;DHT22;21924;51.934;7.414;2024-02-23T09:24:13;7.10;99.90
35804;DHT22;21924;51.934;7.414;2024-02-23T09:26:57;7.10;99.90
35804;DHT22;21924;51.934;7.414;2024-02-23T09:29:41;7.20;99.90
35804;DHT22;21924;51.934;7.414;2024-02-23T09:32:26;7.00;99.90
35804;DHT22;21924;51.934;7.414;2024-02-23T09:35:10;6.90;99.90
35804;DHT22;21924;51.934;7.414;2024-02-23T09:37:54;6.90;99.90
35804;DHT22;21924;51.934;7.414;2024-02-23T09:40:39;6.90;99.90
35804;DHT22;21924;51.934;7.414;2024-02-23T09:43:28;6.80;99.90
35804;DHT22;21924;51.934;7.414;2024-02-23T09:46:14;6.90;99.90
35804;DHT22;21924;51.934;7.414;2024-02-23T09:48:59;6.80;99.90
35804;DHT22;21924;51.934;7.414;2024-02-23T09:51:43;6.90;99.90
35804;DHT22;21924;51.934;7.414;2024-02-23T09:54:28;6.80;99.90
35804;DHT22;21924;51.934;7.414;2024-02-23T09:57:14;6.90;99.90
35804;DHT22;21924;51.934;7.414;2024-02-23T09:59:59;7.00;99.90
35804;DHT22;21924;51.934;7.414;2024-02-23T10:02:45;7.00;99.90
35804;DHT22;21924;51.934;7.414;2024-02-23T10:05:30;7.00;99.90
35804;DHT22;21924;51.934;7.414;2024-02-23T10:08:17;7.00;99.90
35804;DHT22;21924;51.934;7.414;2024-02-23T10:11:01;7.20;99.90
35804;DHT22;21924;51.934;7.414;2024-02-23T10:13:47;7.10;99.90
35804;DHT22;21924;51.934;7.414;2024-02-23T10:16:34;7.20;99.90
35804;DHT22;21924;51.934;7.414;2024-02-23T10:19:22;7.20;99.90
35804;DHT22;21924;51.934;7.414;2024-02-23T10:22:12;7.20;99.90
35804;DHT22;21924;51.934;7.414;2024-02-23T10:24:56;7.20;99.90
35804;DHT22;21924;51.934;7.414;2024-02-23T10:27:43;7.20;99.90
35804;DHT22;21924;51.934;7.414;2024-02-23T10:30:27;7.10;99.90
35804;DHT22;21924;51.934;7.414;2024-02-23T10:33:13;7.10;99.90
35804;DHT22;21924;51.934;7.414;2024-02-23T10:35:58;7.10;99.90
35804;DHT22;21924;51.934;7.414;2024-02-23T10:38:45;7.10;99.90
35804;DHT22;21924;51.934;7.414;2024-02-23T10:41:35;7.10;99.90
35804;DHT22;21924;51.934;7.414;2024-02-23T10:44:20;7.10;99.90
35804;DHT22;21924;51.934;7.414;2024-02-23T10:47:11;7.10;99.90
35804;DHT22;21924;51.934;7.414;2024-02-23T10:50:00;7.10;99.90
35804;DHT22;21924;51.934;7.414;2024-02-23T10:52:45;7.20;99.90
35804;DHT22;21924;51.934;7.414;2024-02-23T10:55:33;7.20;99.90
35804;DHT22;21924;51.934;7.414;2024-02-23T10:58:20;7.30;99.90
35804;DHT22;21924;51.934;7.414;2024-02-23T11:01:07;7.30;99.90
35804;DHT22;21924;51.934;7.414;2024-02-23T11:03:53;7.20;99.90
35804;DHT22;21924;51.934;7.414;2024-02-23T11:06:38;7.30;99.90
35804;DHT22;21924;51.934;7.414;2024-02-23T11:09:24;7.30;99.90
35804;DHT22;21924;51.934;7.414;2024-02-23T11:12:09;7.30;99.90
35804;DHT22;21924;51.934;7.414;2024-02-23T11:14:58;7.50;99.90
35804;DHT22;21924;51.934;7.414;2024-02-23T11:17:49;7.50;99.90
35804;DHT22;21924;51.934;7.414;2024-02-23T11:20:35;7.70;99.90
35804;DHT22;21924;51.934;7.414;2024-02-23T11:23:20;7.80;99.90
35804;DHT22;21924;51.934;7.414;2024-02-23T11:26:05;7.90;99.90
35804;DHT22;21924;51.934;7.414;2024-02-23T11:28:53;7.80;99.90
35804;DHT22;21924;51.934;7.414;2024-02-23T11:31:44;7.80;99.90
35804;DHT22;21924;51.934;7.414;2024-02-23T11:34:30;7.90;99.90
35804;DHT22;21924;51.934;7.414;2024-02-23T11:37:18;7.90;99.90
35804;DHT22;21924;51.934;7.414;2024-02-23T11:40:03;7.90;99.90
35804;DHT22;21924;51.934;7.414;2024-02-23T11:42:49;8.00;99.90
35804;DHT22;21924;51.934;7.414;2024-02-23T11:45:34;7.90;99.90
35804;DHT22;21924;51.934;7.414;2024-02-23T11:48:18;8.00;99.90
35804;DHT22;21924;51.934;7.414;2024-02-23T11:51:03;7.90;99.90
35804;DHT22;21924;51.934;7.414;2024-02-23T11:53:48;7.90;99.90
35804;DHT22;21924;51.934;7.414;2024-02-23T11:56:33;8.00;99.90
35804;DHT22;21924;51.934;7.414;2024-02-23T11:59:18;7.80;99.90
35804;DHT22;21924;51.934;7.414;2024-02-23T12:02:02;7.80;99.90
35804;DHT22;21924;51.934;7.414;2024-02-23T12:04:47;7.70;99.90
35804;DHT22;21924;51.934;7.414;2024-02-23T12:07:32;7.70;99.90
35804;DHT22;21924;51.934;7.414;2024-02-23T12:10:17;7.80;99.90
35804;DHT22;21924;51.934;7.414;2024-02-23T12:13:01;7.80;99.90
35804;DHT22;21924;51.934;7.414;2024-02-23T12:15:46;7.80;99.90
35804;DHT22;21924;51.934;7.414;2024-02-23T12:18:34;7.80;99.90
35804;DHT22;21924;51.934;7.414;2024-02-23T12:21:19;8.00;99.90
35804;DHT22;21924;51.934;7.414;2024-02-23T12:24:05;8.00;99.90
35804;DHT22;21924;51.934;7.414;2024-02-23T12:26:56;8.00;99.90
35804;DHT22;21924;51.934;7.414;2024-02-23T12:29:40;8.20;99.90
35804;DHT22;21924;51.934;7.414;2024-02-23T12:32:24;8.40;99.90
35804;DHT22;21924;51.934;7.414;2024-02-23T12:35:11;8.40;99.90
35804;DHT22;21924;51.934;7.414;2024-02-23T12:37:56;8.40;99.90
35804;DHT22;21924;51.934;7.414;2024-02-23T12:40:40;8.60;99.90
35804;DHT22;21924;51.934;7.414;2024-02-23T12:43:24;8.50;99.90
35804;DHT22;21924;51.934;7.414;2024-02-23T12:46:09;8.40;99.90
35804;DHT22;21924;51.934;7.414;2024-02-23T12:48:53;8.20;99.90
35804;DHT22;21924;51.934;7.414;2024-02-23T12:51:37;8.20;99.90
35804;DHT22;21924;51.934;7.414;2024-02-23T12:54:21;8.00;99.90
35804;DHT22;21924;51.934;7.414;2024-02-23T12:57:05;7.90;99.90
35804;DHT22;21924;51.934;7.414;2024-02-23T12:59:49;7.80;99.90
35804;DHT22;21924;51.934;7.414;2024-02-23T13:02:33;7.70;99.90
35804;DHT22;21924;51.934;7.414;2024-02-23T13:05:18;7.60;99.90
35804;DHT22;21924;51.934;7.414;2024-02-23T13:08:03;7.50;99.90
35804;DHT22;21924;51.934;7.414;2024-02-23T13:10:47;7.50;99.90
35804;DHT22;21924;51.934;7.414;2024-02-23T13:13:32;7.50;99.90
35804;DHT22;21924;51.934;7.414;2024-02-23T13:16:17;7.40;99.90
35804;DHT22;21924;51.934;7.414;2024-02-23T13:19:01;7.30;99.90
35804;DHT22;21924;51.934;7.414;2024-02-23T13:21:45;7.40;99.90
35804;DHT22;21924;51.934;7.414;2024-02-23T13:24:29;7.50;99.90
35804;DHT22;21924;51.934;7.414;2024-02-23T13:27:13;7.50;99.90
35804;DHT22;21924;51.934;7.414;2024-02-23T13:29:57;7.50;99.90
35804;DHT22;21924;51.934;7.414;2024-02-23T13:32:41;7.40;99.90
35804;DHT22;21924;51.934;7.414;2024-02-23T13:35:26;7.40;99.90
35804;DHT22;21924;51.934;7.414;2024-02-23T13:38:10;7.40;99.90
35804;DHT22;21924;51.934;7.414;2024-02-23T13:40:54;7.30;99.90
35804;DHT22;21924;51.934;7.414;2024-02-23T13:43:38;7.40;99.90
35804;DHT22;21924;51.934;7.414;2024-02-23T13:46:23;7.30;99.90
35804;DHT22;21924;51.934;7.414;2024-02-23T13:49:07;7.10;99.90
35804;DHT22;21924;51.934;7.414;2024-02-23T13:51:52;7.20;99.90
35804;DHT22;21924;51.934;7.414;2024-02-23T13:54:36;7.20;99.90
35804;DHT22;21924;51.934;7.414;2024-02-23T13:57:20;7.30;99.90
35804;DHT22;21924;51.934;7.414;2024-02-23T14:00:06;7.20;99.90
35804;DHT22;21924;51.934;7.414;2024-02-23T14:02:56;7.30;99.90
35804;DHT22;21924;51.934;7.414;2024-02-23T14:05:41;7.30;99.90
35804;DHT22;21924;51.934;7.414;2024-02-23T14:08:28;7.30;99.90
35804;DHT22;21924;51.934;7.414;2024-02-23T14:11:12;7.20;99.90
35804;DHT22;21924;51.934;7.414;2024-02-23T14:13:57;7.20;99.90
35804;DHT22;21924;51.934;7.414;2024-02-23T14:16:41;7.20;99.90
35804;DHT22;21924;51.934;7.414;2024-02-23T14:19:25;7.30;99.90
35804;DHT22;21924;51.934;7.414;2024-02-23T14:22:10;7.30;99.90
35804;DHT22;21924;51.934;7.414;2024-02-23T14:24:54;7.30;99.90
35804;DHT22;21924;51.934;7.414;2024-02-23T14:27:38;7.30;99.90
35804;DHT22;21924;51.934;7.414;2024-02-23T14:30:26;7.30;99.90
35804;DHT22;21924;51.934;7.414;2024-02-23T14:33:10;7.30;99.90
35804;DHT22;21924;51.934;7.414;2024-02-23T14:35:54;7.40;99.90
35804;DHT22;21924;51.934;7.414;2024-02-23T14:38:39;7.40;99.90
35804;DHT22;21924;51.934;7.414;2024-02-23T14:41:23;7.50;99.90
35804;DHT22;21924;51.934;7.414;2024-02-23T14:44:08;7.40;99.90
35804;DHT22;21924;51.934;7.414;2024-02-23T14:46:53;7.40;99.90
35804;DHT22;21924;51.934;7.414;2024-02-23T14:49:36;7.50;99.90
35804;DHT22;21924;51.934;7.414;2024-02-23T14:52:21;7.60;99.90
35804;DHT22;21924;51.934;7.414;2024-02-23T14:55:05;7.60;99.90
35804;DHT22;21924;51.934;7.414;2024-02-23T14:57:49;7.50;99.90
35804;DHT22;21924;51.934;7.414;2024-02-23T15:01:04;7.40;99.90
35804;DHT22;21924;51.934;7.414;2024-02-23T15:04:05;7.30;99.90
35804;DHT22;21924;51.934;7.414;2024-02-23T15:07:04;7.30;99.90
35804;DHT22;21924;51.934;7.414;2024-02-23T15:10:05;7.30;99.90
35804;DHT22;21924;51.934;7.414;2024-02-23T15:24:07;7.30;99.90
35804;DHT22;21924;51.934;7.414;2024-02-23T15:31:06;7.30;99.90
35804;DHT22;21924;51.934;7.414;2024-02-23T15:34:10;7.30;99.90
35804;DHT22;21924;51.934;7.414;2024-02-23T15:48:08;7.20;99.90
35804;DHT22;21924;51.934;7.414;2024-02-23T16:24:12;7.10;99.90
35804;DHT22;21924;51.934;7.414;2024-02-23T16:53:08;7.30;99.90
35804;DHT22;21924;51.934;7.414;2024-02-23T17:00:07;7.00;99.90
35804;DHT22;21924;51.934;7.414;2024-02-23T17:03:15;6.60;99.90
35804;DHT22;21924;51.934;7.414;2024-02-23T17:06:15;6.30;99.90
35804;DHT22;21924;51.934;7.414;2024-02-23T17:20:03;5.70;99.90
35804;DHT22;21924;51.934;7.414;2024-02-23T17:56:19;5.70;99.90
35804;DHT22;21924;51.934;7.414;2024-02-23T17:59:04;5.70;99.90
35804;DHT22;21924;51.934;7.414;2024-02-23T18:01:49;5.70;99.90
35804;DHT22;21924;51.934;7.414;2024-02-23T18:08:21;5.80;99.90
35804;DHT22;21924;51.934;7.414;2024-02-23T18:15:15;5.80;99.90
35804;DHT22;21924;51.934;7.414;2024-02-23T18:25:23;5.90;99.90
35804;DHT22;21924;51.934;7.414;2024-02-23T18:28:23;5.90;99.90
35804;DHT22;21924;51.934;7.414;2024-02-23T18:31:23;5.80;99.90
35804;DHT22;21924;51.934;7.414;2024-02-23T18:45:24;5.90;99.90
35804;DHT22;21924;51.934;7.414;2024-02-23T18:48:24;5.90;99.90
35804;DHT22;21924;51.934;7.414;2024-02-23T18:51:25;5.90;99.90
35804;DHT22;21924;51.934;7.414;2024-02-23T18:54:25;5.90;99.90
35804;DHT22;21924;51.934;7.414;2024-02-23T19:01:25;5.70;99.90
35804;DHT22;21924;51.934;7.414;2024-02-23T19:08:25;5.50;99.90
35804;DHT22;21924;51.934;7.414;2024-02-23T19:15:09;5.40;99.90
35804;DHT22;21924;51.934;7.414;2024-02-23T19:18:28;5.30;99.90
35804;DHT22;21924;51.934;7.414;2024-02-23T19:25:31;5.30;99.90
35804;DHT22;21924;51.934;7.414;2024-02-23T19:32:30;5.30;99.90
35804;DHT22;21924;51.934;7.414;2024-02-23T19:39:30;5.30;99.90
35804;DHT22;21924;51.934;7.414;2024-02-23T19:57:33;5.30;99.90
35804;DHT22;21924;51.934;7.414;2024-02-23T20:00:33;5.30;99.90
35804;DHT22;21924;51.934;7.414;2024-02-23T20:03:33;5.40;99.90
35804;DHT22;21924;51.934;7.414;2024-02-23T20:21:33;5.60;99.90
35804;DHT22;21924;51.934;7.414;2024-02-23T20:28:35;5.60;99.90
35804;DHT22;21924;51.934;7.414;2024-02-23T20:42:35;5.60;99.90
35804;DHT22;21924;51.934;7.414;2024-02-23T20:49:35;5.60;99.90
35804;DHT22;21924;51.934;7.414;2024-02-23T20:56:38;5.60;99.90
35804;DHT22;21924;51.934;7.414;2024-02-23T20:59:37;5.60;99.90
35804;DHT22;21924;51.934;7.414;2024-02-23T21:02:37;5.50;99.90
35804;DHT22;21924;51.934;7.414;2024-02-23T21:21:42;5.50;99.90
35804;DHT22;21924;51.934;7.414;2024-02-23T21:24:39;5.50;99.90
35804;DHT22;21924;51.934;7.414;2024-02-23T21:27:39;5.50;99.90
35804;DHT22;21924;51.934;7.414;2024-02-23T21:30:23;5.50;99.90
35804;DHT22;21924;51.934;7.414;2024-02-23T21:33:08;5.40;99.90
35804;DHT22;21924;51.934;7.414;2024-02-23T21:35:53;5.40;99.90
35804;DHT22;21924;51.934;7.414;2024-02-23T21:38:38;5.30;99.90
35804;DHT22;21924;51.934;7.414;2024-02-23T21:41:22;5.30;99.90
35804;DHT22;21924;51.934;7.414;2024-02-23T21:44:06;5.30;99.90
35804;DHT22;21924;51.934;7.414;2024-02-23T21:46:51;5.20;99.90
35804;DHT22;21924;51.934;7.414;2024-02-23T21:49:35;5.20;99.90
35804;DHT22;21924;51.934;7.414;2024-02-23T21:52:21;5.20;99.90
35804;DHT22;21924;51.934;7.414;2024-02-23T21:55:05;5.20;99.90
35804;DHT22;21924;51.934;7.414;2024-02-23T21:57:50;5.20;99.90
35804;DHT22;21924;51.934;7.414;2024-02-23T22:00:34;5.10;99.90
35804;DHT22;21924;51.934;7.414;2024-02-23T22:03:19;5.00;99.90
35804;DHT22;21924;51.934;7.414;2024-02-23T22:06:04;5.00;99.90
35804;DHT22;21924;51.934;7.414;2024-02-23T22:08:48;5.00;99.90
35804;DHT22;21924;51.934;7.414;2024-02-23T22:11:32;4.90;99.90
35804;DHT22;21924;51.934;7.414;2024-02-23T22:14:16;4.90;99.90